Weather at Arusha Airport

Public forecast

Using degrees Celsius for public forecast. Weather courtesy of forecast.io.

Current aviation weather report (METAR) for Arusha Airport

Report is more than 2 hours old.

Retrieved 2021/10/19 10:00 UTC (4 hours ago):

HTAR 191000Z 09011KT 9999 BKN022 21/16 Q1022 NOSIG

Aviation forecast (TAF) for Arusha Airport

Retrieved 2021/10/19 12:54 UTC (2 hours ago):

TAF HTAR 191100Z 1912/2012 12010KT 9999 BKN028